Alamo, GA (30411)

02:02 EST le 22 décembre 2014 (GMT -0500)
RAWS MCRAE GA US | Change Station
CLOSE
Current Station
Stations météorologiques personnelles
Location: McRae, GA
Altitude: 201 ft
Stations météo à proximité

Alt. 201 ft 32.09 °N, 82.88 °W | Updated 59 minutes ago

Brouillard
Brouillard
47 ° F
Paraît 44 ° F
N
6
Vent Variable Vent de NE
Gusts 9.0 mph

Aujourd'hui
Haut(e) -- | Bas -- ° F
--% Risque de précip.
Hier
Haut(e) -- | Bas -- ° F
Precip. -- pouce
7:28 AM 5:31 PM
Nouvelle lune, 0% visible
Pression 30.02 pouce
Visibilité 1.8 Miles terrestres
Nuages Couvert 200 ft
Refroidissement éolien 44 ° F
Point de rosée 47 ° F
Humidité 100%
Précipitations 0.17 pouce
Profondeur de la couche neigeuse Non disponible.
UV 0 sur 12
Pollen 1.40 sur 12
Qualité de l'air Non disponible.
Flu Activity Non disponible.
METAR KAZE 220635Z AUTO 01004KT 1 3/4SM -RA OVC002 09/09 A3002 RMK AO2 T00920092

More Conditions Fewer Conditions

Pression 30.02 pouce
Visibilité 1.8 Miles terrestres
Nuages Couvert 200 ft
Refroidissement éolien 44 ° F
Point de rosée 47 ° F
Humidité 100%
Précipitations 0.17 pouce
Profondeur de la couche neigeuse Non disponible.
UV 0 sur 12
Pollen 1.40 sur 12
Qualité de l'air Non disponible.
Flu Activity Non disponible.
METAR KAZE 220635Z AUTO 01004KT 1 3/4SM -RA OVC002 09/09 A3002 RMK AO2 T00920092

More Conditions Fewer Conditions

10-Day Weather Forecast

Almanac

Astronomie

Dec. 22, 2014 Lever Coucher
Temps réel
Crépuscule civil
Crépuscule nautique
Crépuscule astronomique
Lune
Durée de lumière visible
Longueur du jour
Tomorrow will be .
, % of the Moon is Illuminated

Extrêmes aujourd'hui

State Highs State Lows

Community

WunderPhotos

Upload Photos

1,779,560 Photos téléchargées !

WunderBlogs® & News

Nearby

Qualité de l'air

  Qualité de l'air Indice de la qualité de l'air Polluant
Not available.

Épaisseur de neige

Station Depth Altitude

Activité sismique

Ville Distance Mag. Time & Date
Minimum magnitude displayed is 2.5.

Températures des eaux côtières

Lieu Température

Stations météo à proximité